Time,TemperatureF,DewpointF,PressureIn,WindDirection,WindDirectionDegrees,WindSpeedMPH,WindSpeedGustMPH,Humidity,HourlyPrecipIn,Conditions,Clouds,dailyrainin,SolarRadiationWatts/m^2,SoftwareType,DateUTC
2013-07-12 00:04:00,59.4,55.2,30.10,East,82,1.0,4.0,86,0.00,,,0.00,0.0,meteohub,2013-07-12 10:04:00,
2013-07-12 00:09:00,59.2,54.7,30.10,East,86,1.0,4.0,85,0.00,,,0.00,0.0,meteohub,2013-07-12 10:09:00,
2013-07-12 00:14:00,59.0,53.6,30.10,East,90,1.0,4.0,82,0.00,,,0.00,0.0,meteohub,2013-07-12 10:14:00,
2013-07-12 00:19:00,58.6,52.9,30.10,ENE,78,1.0,5.0,81,0.00,,,0.00,0.0,meteohub,2013-07-12 10:19:00,
2013-07-12 00:24:00,58.6,53.2,30.10,East,89,1.0,5.0,82,0.00,,,0.00,0.0,meteohub,2013-07-12 10:24:00,
2013-07-12 00:29:00,58.5,52.7,30.10,East,83,3.0,5.0,81,0.00,,,0.00,0.0,meteohub,2013-07-12 10:29:00,
2013-07-12 00:34:00,57.9,52.7,30.09,East,85,2.0,4.0,83,0.00,,,0.00,0.0,meteohub,2013-07-12 10:34:00,
2013-07-12 00:39:00,57.6,52.5,30.09,East,88,0.0,4.0,83,0.00,,,0.00,0.0,meteohub,2013-07-12 10:39:00,
2013-07-12 00:44:00,57.4,52.5,30.09,East,81,2.0,5.0,84,0.00,,,0.00,0.0,meteohub,2013-07-12 10:44:00,
2013-07-12 00:49:00,57.0,52.2,30.09,ENE,75,1.0,5.0,84,0.00,,,0.00,0.0,meteohub,2013-07-12 10:49:00,
2013-07-12 00:54:00,56.8,52.3,30.09,East,82,2.0,5.0,85,0.00,,,0.00,0.0,meteohub,2013-07-12 10:54:00,
2013-07-12 00:59:00,56.8,51.4,30.09,ENE,78,1.0,3.0,82,0.00,,,0.00,0.0,meteohub,2013-07-12 10:59:00,
2013-07-12 01:04:00,56.7,51.3,30.09,East,79,0.0,5.0,82,0.00,,,0.00,0.0,meteohub,2013-07-12 11:04:00,
2013-07-12 01:09:00,56.7,51.8,30.09,ENE,75,2.0,5.0,84,0.00,,,0.00,0.0,meteohub,2013-07-12 11:09:00,
2013-07-12 01:15:00,56.7,51.6,30.08,East,100,0.0,5.0,83,0.00,,,0.00,0.0,meteohub,2013-07-12 11:15:00,
2013-07-12 01:20:00,56.5,51.4,30.08,East,86,1.0,5.0,83,0.00,,,0.00,0.0,meteohub,2013-07-12 11:20:00,
2013-07-12 01:25:00,56.1,50.0,30.08,ENE,71,2.0,5.0,80,0.00,,,0.00,0.0,meteohub,2013-07-12 11:25:00,
2013-07-12 01:30:00,55.8,50.0,30.08,East,93,2.0,7.0,81,0.00,,,0.00,0.0,meteohub,2013-07-12 11:30:00,
2013-07-12 01:35:00,55.0,50.0,30.09,East,88,0.0,7.0,83,0.00,,,0.00,0.0,meteohub,2013-07-12 11:35:00,
2013-07-12 01:40:00,54.7,50.2,30.09,East,82,0.0,7.0,85,0.00,,,0.00,0.0,meteohub,2013-07-12 11:40:00,
2013-07-12 01:45:00,54.3,49.8,30.09,ENE,78,1.0,3.0,85,0.00,,,0.00,0.0,meteohub,2013-07-12 11:45:00,
2013-07-12 01:50:00,54.3,50.2,30.08,ENE,78,2.0,3.0,86,0.00,,,0.00,0.0,meteohub,2013-07-12 11:50:00,
2013-07-12 01:55:00,54.1,49.8,30.08,East,82,1.0,3.0,85,0.00,,,0.00,0.0,meteohub,2013-07-12 11:55:00,
2013-07-12 02:00:00,54.0,49.6,30.08,ENE,75,2.0,4.0,85,0.00,,,0.00,0.0,meteohub,2013-07-12 12:00:00,
2013-07-12 02:05:00,54.3,50.2,30.08,East,98,0.0,4.0,86,0.00,,,0.00,0.0,meteohub,2013-07-12 12:05:00,
2013-07-12 02:10:00,54.3,49.8,30.08,East,84,0.0,4.0,85,0.00,,,0.00,0.0,meteohub,2013-07-12 12:10:00,
2013-07-12 02:15:00,54.1,50.0,30.08,East,87,1.0,4.0,86,0.00,,,0.00,0.0,meteohub,2013-07-12 12:15:00,
2013-07-12 02:20:00,54.1,50.0,30.08,ENE,70,2.0,4.0,86,0.00,,,0.00,0.0,meteohub,2013-07-12 12:20:00,
2013-07-12 02:27:00,54.1,50.0,30.08,East,88,2.0,5.0,86,0.00,,,0.00,0.0,meteohub,2013-07-12 12:27:00,
2013-07-12 02:32:00,53.8,50.0,30.08,East,90,1.0,5.0,87,0.00,,,0.00,0.0,meteohub,2013-07-12 12:32:00,
2013-07-12 02:37:00,53.6,49.5,30.08,East,79,2.0,3.0,86,0.00,,,0.00,0.0,meteohub,2013-07-12 12:37:00,
2013-07-12 02:42:00,53.4,49.6,30.08,East,80,2.0,3.0,87,0.00,,,0.00,0.0,meteohub,2013-07-12 12:42:00,
2013-07-12 02:47:00,53.2,49.5,30.08,East,89,1.0,3.0,87,0.00,,,0.00,0.0,meteohub,2013-07-12 12:47:00,
2013-07-12 02:52:00,53.1,49.6,30.08,ESE,109,1.0,3.0,88,0.00,,,0.00,0.0,meteohub,2013-07-12 12:52:00,
2013-07-12 02:57:00,53.2,49.1,30.08,East,81,2.0,5.0,86,0.00,,,0.00,0.0,meteohub,2013-07-12 12:57:00,
2013-07-12 03:02:00,53.1,49.3,30.08,East,91,2.0,5.0,87,0.00,,,0.00,0.0,meteohub,2013-07-12 13:02:00,
2013-07-12 03:07:00,53.1,48.9,30.08,East,86,2.0,5.0,86,0.00,,,0.00,0.0,meteohub,2013-07-12 13:07:00,
2013-07-12 03:12:00,53.1,48.7,30.08,East,92,2.0,4.0,85,0.00,,,0.00,0.0,meteohub,2013-07-12 13:12:00,
2013-07-12 03:17:00,53.2,49.1,30.08,East,84,1.0,4.0,86,0.00,,,0.00,0.0,meteohub,2013-07-12 13:17:00,
2013-07-12 03:22:00,53.2,49.5,30.08,ENE,73,3.0,4.0,87,0.00,,,0.00,0.0,meteohub,2013-07-12 13:22:00,
2013-07-12 03:27:00,53.1,48.4,30.08,East,86,1.0,3.0,84,0.00,,,0.00,0.0,meteohub,2013-07-12 13:27:00,
2013-07-12 03:32:00,53.1,48.4,30.08,East,81,1.0,3.0,84,0.00,,,0.00,0.0,meteohub,2013-07-12 13:32:00,
2013-07-12 03:37:00,53.1,48.0,30.08,East,96,1.0,5.0,83,0.00,,,0.00,0.0,meteohub,2013-07-12 13:37:00,
2013-07-12 03:42:00,53.1,47.7,30.08,East,81,1.0,5.0,82,0.00,,,0.00,0.0,meteohub,2013-07-12 13:42:00,
2013-07-12 03:47:00,53.1,48.4,30.08,East,96,2.0,5.0,84,0.00,,,0.00,0.0,meteohub,2013-07-12 13:47:00,
2013-07-12 03:52:00,53.2,48.6,30.08,East,84,1.0,5.0,84,0.00,,,0.00,0.0,meteohub,2013-07-12 13:52:00,
2013-07-12 03:57:00,53.2,48.2,30.08,East,84,2.0,5.0,83,0.00,,,0.00,0.0,meteohub,2013-07-12 13:57:00,
2013-07-12 04:02:00,53.1,47.7,30.08,East,90,1.0,5.0,82,0.00,,,0.00,0.0,meteohub,2013-07-12 14:02:00,
2013-07-12 04:07:00,52.3,47.7,30.07,ENE,76,1.0,5.0,84,0.00,,,0.00,0.0,meteohub,2013-07-12 14:07:00,
2013-07-12 04:12:00,52.3,47.7,30.08,East,85,2.0,5.0,84,0.00,,,0.00,0.0,meteohub,2013-07-12 14:12:00,
2013-07-12 04:17:00,52.5,47.5,30.08,East,81,2.0,4.0,83,0.00,,,0.00,0.0,meteohub,2013-07-12 14:17:00,
2013-07-12 04:22:00,52.3,47.7,30.08,East,84,1.0,4.0,84,0.00,,,0.00,0.0,meteohub,2013-07-12 14:22:00,
2013-07-12 04:27:00,52.9,48.2,30.08,ENE,67,2.0,6.0,84,0.00,,,0.00,0.0,meteohub,2013-07-12 14:27:00,
2013-07-12 04:32:00,53.2,47.8,30.07,East,90,2.0,6.0,82,0.00,,,0.00,0.0,meteohub,2013-07-12 14:32:00,
2013-07-12 04:37:00,53.1,47.7,30.07,ENE,71,3.0,6.0,82,0.00,,,0.00,0.0,meteohub,2013-07-12 14:37:00,
2013-07-12 04:42:00,53.1,47.3,30.08,East,98,1.0,5.0,81,0.00,,,0.00,0.0,meteohub,2013-07-12 14:42:00,
2013-07-12 04:47:00,52.9,47.3,30.08,East,88,0.0,5.0,81,0.00,,,0.00,0.0,meteohub,2013-07-12 14:47:00,
2013-07-12 04:52:00,52.2,47.5,30.08,ENE,70,1.0,5.0,84,0.00,,,0.00,0.0,meteohub,2013-07-12 14:52:00,
2013-07-12 04:57:00,51.8,47.5,30.08,East,84,2.0,4.0,85,0.00,,,0.00,0.0,meteohub,2013-07-12 14:57:00,
2013-07-12 05:02:00,51.6,47.3,30.08,East,85,2.0,3.0,85,0.00,,,0.00,0.0,meteohub,2013-07-12 15:02:00,
2013-07-12 05:07:00,52.0,46.9,30.09,ENE,75,4.0,4.0,83,0.00,,,0.00,0.0,meteohub,2013-07-12 15:07:00,
2013-07-12 05:12:00,52.5,46.9,30.09,East,86,1.0,4.0,81,0.00,,,0.00,0.0,meteohub,2013-07-12 15:12:00,
2013-07-12 05:17:00,52.5,46.9,30.09,ENE,75,3.0,5.0,81,0.00,,,0.00,0.0,meteohub,2013-07-12 15:17:00,
2013-07-12 05:22:00,52.9,46.9,30.09,ENE,59,4.0,5.0,80,0.00,,,0.00,0.0,meteohub,2013-07-12 15:22:00,
2013-07-12 05:27:00,52.9,46.6,30.09,ENE,65,3.0,5.0,79,0.00,,,0.00,0.0,meteohub,2013-07-12 15:27:00,
2013-07-12 05:32:00,53.1,46.0,30.09,East,85,2.0,6.0,77,0.00,,,0.00,0.0,meteohub,2013-07-12 15:32:00,
2013-07-12 05:37:00,53.1,46.4,30.09,East,82,2.0,6.0,78,0.00,,,0.00,0.0,meteohub,2013-07-12 15:37:00,
2013-07-12 05:42:00,53.1,46.8,30.09,East,82,3.0,6.0,79,0.00,,,0.00,0.0,meteohub,2013-07-12 15:42:00,
2013-07-12 05:47:00,53.2,46.6,30.08,ENE,71,3.0,6.0,78,0.00,,,0.00,0.0,meteohub,2013-07-12 15:47:00,
2013-07-12 05:52:00,53.4,46.4,30.09,ENE,65,2.0,6.0,77,0.00,,,0.00,0.0,meteohub,2013-07-12 15:52:00,
2013-07-12 05:57:00,53.8,46.8,30.09,East,87,0.0,5.0,77,0.00,,,0.00,5.0,meteohub,2013-07-12 15:57:00,
2013-07-12 06:02:00,53.1,46.8,30.09,East,99,0.0,5.0,79,0.00,,,0.00,5.0,meteohub,2013-07-12 16:02:00,
2013-07-12 06:07:00,52.9,46.6,30.09,ENE,67,1.0,5.0,79,0.00,,,0.00,7.0,meteohub,2013-07-12 16:07:00,
2013-07-12 06:12:00,52.9,46.6,30.09,ENE,73,2.0,5.0,79,0.00,,,0.00,9.0,meteohub,2013-07-12 16:12:00,
2013-07-12 06:17:00,52.3,46.4,30.09,ENE,59,2.0,5.0,80,0.00,,,0.00,11.0,meteohub,2013-07-12 16:17:00,
2013-07-12 06:22:00,52.5,46.6,30.09,East,90,1.0,5.0,80,0.00,,,0.00,12.0,meteohub,2013-07-12 16:22:00,
2013-07-12 06:27:00,52.5,46.6,30.08,East,79,2.0,5.0,80,0.00,,,0.00,12.0,meteohub,2013-07-12 16:27:00,
2013-07-12 06:32:00,52.9,46.6,30.09,ENE,78,0.0,5.0,79,0.00,,,0.00,14.0,meteohub,2013-07-12 16:32:00,
2013-07-12 06:37:00,53.1,46.8,30.09,ENE,61,1.0,5.0,79,0.00,,,0.00,14.0,meteohub,2013-07-12 16:37:00,
2013-07-12 06:42:00,53.2,46.9,30.09,ESE,108,2.0,5.0,79,0.00,,,0.00,16.0,meteohub,2013-07-12 16:42:00,
2013-07-12 06:48:00,52.7,46.8,30.10,East,81,2.0,5.0,80,0.00,,,0.00,16.0,meteohub,2013-07-12 16:48:00,
2013-07-12 06:55:00,52.5,46.9,30.10,ENE,77,2.0,4.0,81,0.00,,,0.00,16.0,meteohub,2013-07-12 16:55:00,
2013-07-12 07:00:00,52.5,47.5,30.09,ENE,78,1.0,4.0,83,0.00,,,0.00,18.0,meteohub,2013-07-12 17:00:00,
2013-07-12 07:05:00,53.1,47.7,30.09,East,82,2.0,4.0,82,0.00,,,0.00,18.0,meteohub,2013-07-12 17:05:00,
2013-07-12 07:11:00,52.9,48.2,30.09,ENE,68,3.0,4.0,84,0.00,,,0.00,19.0,meteohub,2013-07-12 17:11:00,
2013-07-12 07:16:00,53.4,47.7,30.09,East,92,1.0,3.0,81,0.00,,,0.00,19.0,meteohub,2013-07-12 17:16:00,
2013-07-12 07:21:00,54.3,48.0,30.09,East,84,2.0,3.0,79,0.00,,,0.00,19.0,meteohub,2013-07-12 17:21:00,
2013-07-12 07:26:00,55.2,47.8,30.09,ENE,76,0.0,3.0,76,0.00,,,0.00,21.0,meteohub,2013-07-12 17:26:00,
2013-07-12 07:31:00,55.8,49.3,30.09,ENE,76,0.0,3.0,79,0.00,,,0.00,21.0,meteohub,2013-07-12 17:31:00,
2013-07-12 07:36:00,55.9,49.8,30.09,ENE,75,0.0,3.0,80,0.00,,,0.00,23.0,meteohub,2013-07-12 17:36:00,
2013-07-12 07:41:00,56.7,50.9,30.09,ENE,74,1.0,2.0,81,0.00,,,0.00,23.0,meteohub,2013-07-12 17:41:00,
2013-07-12 07:46:00,57.4,51.6,30.09,East,82,1.0,2.0,81,0.00,,,0.00,23.0,meteohub,2013-07-12 17:46:00,
2013-07-12 07:51:00,57.9,52.2,30.09,East,81,0.0,2.0,81,0.00,,,0.00,25.0,meteohub,2013-07-12 17:51:00,
2013-07-12 07:57:00,58.5,52.7,30.09,East,80,0.0,2.0,81,0.00,,,0.00,25.0,meteohub,2013-07-12 17:57:00,
2013-07-12 08:02:00,59.4,53.6,30.09,East,80,0.0,2.0,81,0.00,,,0.00,25.0,meteohub,2013-07-12 18:02:00,
2013-07-12 08:07:00,60.6,54.5,30.09,East,81,0.0,1.0,80,0.00,,,0.00,25.0,meteohub,2013-07-12 18:07:00,
2013-07-12 08:12:00,62.6,55.6,30.09,ENE,59,0.0,2.0,78,0.00,,,0.00,25.0,meteohub,2013-07-12 18:12:00,
2013-07-12 08:18:00,64.0,55.9,30.09,ENE,61,1.0,2.0,75,0.00,,,0.00,25.0,meteohub,2013-07-12 18:18:00,
2013-07-12 08:23:00,64.9,55.8,30.09,West,263,0.0,2.0,72,0.00,,,0.00,26.0,meteohub,2013-07-12 18:23:00,
2013-07-12 08:28:00,66.0,56.3,30.09,WSW,254,0.0,2.0,71,0.00,,,0.00,26.0,meteohub,2013-07-12 18:28:00,
2013-07-12 08:33:00,66.6,55.6,30.09,SW,236,1.0,3.0,68,0.00,,,0.00,26.0,meteohub,2013-07-12 18:33:00,
2013-07-12 08:38:00,66.9,57.9,30.09,West,260,1.0,3.0,73,0.00,,,0.00,26.0,meteohub,2013-07-12 18:38:00,
2013-07-12 08:43:00,67.3,57.9,30.09,WNW,286,1.0,4.0,72,0.00,,,0.00,26.0,meteohub,2013-07-12 18:43:00,
2013-07-12 08:48:00,67.5,58.1,30.08,WNW,293,0.0,4.0,72,0.00,,,0.00,26.0,meteohub,2013-07-12 18:48:00,
2013-07-12 08:54:00,68.0,58.6,30.08,WNW,292,0.0,4.0,72,0.00,,,0.00,26.0,meteohub,2013-07-12 18:54:00,
2013-07-12 08:59:00,68.5,58.3,30.08,WNW,283,3.0,3.0,70,0.00,,,0.00,26.0,meteohub,2013-07-12 18:59:00,
2013-07-12 09:04:00,68.9,59.9,30.08,WNW,282,0.0,3.0,73,0.00,,,0.00,28.0,meteohub,2013-07-12 19:04:00,
2013-07-12 09:09:00,69.4,60.4,30.08,WNW,298,2.0,3.0,73,0.00,,,0.00,28.0,meteohub,2013-07-12 19:09:00,
2013-07-12 09:14:00,69.4,60.4,30.08,WNW,284,0.0,3.0,73,0.00,,,0.00,28.0,meteohub,2013-07-12 19:14:00,
2013-07-12 09:19:00,69.1,59.7,30.08,WNW,282,1.0,3.0,72,0.00,,,0.00,28.0,meteohub,2013-07-12 19:19:00,
2013-07-12 09:24:00,69.3,61.0,30.08,WSW,250,0.0,4.0,75,0.00,,,0.00,30.0,meteohub,2013-07-12 19:24:00,
2013-07-12 09:29:00,68.9,60.6,30.08,WSW,258,1.0,4.0,75,0.00,,,0.00,30.0,meteohub,2013-07-12 19:29:00,
2013-07-12 09:34:00,68.7,60.4,30.08,WSW,241,1.0,4.0,75,0.00,,,0.00,30.0,meteohub,2013-07-12 19:34:00,
2013-07-12 09:39:00,68.5,61.0,30.08,NW,314,3.0,4.0,77,0.00,,,0.00,30.0,meteohub,2013-07-12 19:39:00,
2013-07-12 09:44:00,68.7,60.4,30.07,WNW,286,0.0,4.0,75,0.00,,,0.00,32.0,meteohub,2013-07-12 19:44:00,
2013-07-12 09:49:00,69.1,60.8,30.08,WSW,253,3.0,5.0,75,0.00,,,0.00,39.0,meteohub,2013-07-12 19:49:00,
2013-07-12 09:55:00,68.7,60.4,30.08,WNW,300,3.0,6.0,75,0.00,,,0.00,44.0,meteohub,2013-07-12 19:55:00,
2013-07-12 10:00:00,68.5,60.6,30.07,West,277,2.0,6.0,76,0.00,,,0.00,42.0,meteohub,2013-07-12 20:00:00,
2013-07-12 10:05:00,68.7,60.8,30.07,SW,229,0.0,6.0,76,0.00,,,0.00,40.0,meteohub,2013-07-12 20:05:00,
2013-07-12 10:10:00,69.3,60.3,30.06,WSW,248,0.0,6.0,73,0.00,,,0.00,40.0,meteohub,2013-07-12 20:10:00,
2013-07-12 10:17:00,69.1,60.8,30.07,WSW,244,1.0,5.0,75,0.00,,,0.00,42.0,meteohub,2013-07-12 20:17:00,
2013-07-12 10:22:00,69.3,60.6,30.07,SSW,212,0.0,5.0,74,0.00,,,0.00,58.0,meteohub,2013-07-12 20:22:00,
2013-07-12 10:27:00,69.4,60.8,30.07,WSW,244,5.0,5.0,74,0.00,,,0.00,84.0,meteohub,2013-07-12 20:27:00,
2013-07-12 10:32:00,69.6,61.3,30.07,WSW,244,1.0,5.0,75,0.00,,,0.00,93.0,meteohub,2013-07-12 20:32:00,
2013-07-12 10:37:00,70.2,62.6,30.06,WSW,251,1.0,5.0,77,0.00,,,0.00,90.0,meteohub,2013-07-12 20:37:00,
2013-07-12 10:42:00,70.3,62.1,30.06,SW,230,2.0,6.0,75,0.00,,,0.00,88.0,meteohub,2013-07-12 20:42:00,
2013-07-12 10:47:00,70.5,62.2,30.06,WSW,256,2.0,6.0,75,0.00,,,0.00,102.0,meteohub,2013-07-12 20:47:00,
2013-07-12 10:52:00,70.9,63.0,30.06,SW,224,2.0,6.0,76,0.00,,,0.00,213.0,meteohub,2013-07-12 20:52:00,
2013-07-12 10:57:00,70.5,61.9,30.06,WSW,239,1.0,6.0,74,0.00,,,0.00,251.0,meteohub,2013-07-12 20:57:00,
2013-07-12 11:02:00,70.2,61.2,30.06,SSW,213,1.0,6.0,73,0.00,,,0.00,213.0,meteohub,2013-07-12 21:02:00,
2013-07-12 11:07:00,70.2,62.2,30.06,SW,235,3.0,6.0,76,0.00,,,0.00,225.0,meteohub,2013-07-12 21:07:00,
2013-07-12 11:13:00,70.3,61.7,30.06,West,267,1.0,5.0,74,0.00,,,0.00,197.0,meteohub,2013-07-12 21:13:00,
2013-07-12 11:18:00,70.9,63.0,30.06,West,280,2.0,6.0,76,0.00,,,0.00,195.0,meteohub,2013-07-12 21:18:00,
2013-07-12 11:23:00,71.2,62.6,30.06,SW,220,4.0,6.0,74,0.00,,,0.00,295.0,meteohub,2013-07-12 21:23:00,
2013-07-12 11:28:00,71.2,62.6,30.06,WNW,282,0.0,6.0,74,0.00,,,0.00,410.0,meteohub,2013-07-12 21:28:00,
2013-07-12 11:33:00,71.2,62.1,30.06,WNW,300,1.0,6.0,73,0.00,,,0.00,457.0,meteohub,2013-07-12 21:33:00,
2013-07-12 11:39:00,70.9,62.2,30.06,SW,220,4.0,6.0,74,0.00,,,0.00,366.0,meteohub,2013-07-12 21:39:00,
2013-07-12 11:44:00,70.9,63.0,30.06,South,184,0.0,7.0,76,0.00,,,0.00,243.0,meteohub,2013-07-12 21:44:00,
2013-07-12 11:49:00,71.2,62.6,30.06,West,262,4.0,7.0,74,0.00,,,0.00,473.0,meteohub,2013-07-12 21:49:00,
2013-07-12 11:54:00,71.4,62.8,30.06,SW,234,2.0,7.0,74,0.00,,,0.00,554.0,meteohub,2013-07-12 21:54:00,
2013-07-12 11:59:00,71.4,62.8,30.06,NW,323,0.0,9.0,74,0.00,,,0.00,348.0,meteohub,2013-07-12 21:59:00,
2013-07-12 12:04:00,71.2,62.1,30.06,SSW,209,1.0,9.0,73,0.00,,,0.00,413.0,meteohub,2013-07-12 22:04:00,
2013-07-12 12:09:00,70.7,62.4,30.06,SE,145,0.0,8.0,75,0.00,,,0.00,427.0,meteohub,2013-07-12 22:09:00,
2013-07-12 12:16:00,70.9,63.0,30.06,SW,221,2.0,5.0,76,0.00,,,0.00,427.0,meteohub,2013-07-12 22:16:00,
2013-07-12 12:21:00,70.9,63.0,30.05,SSE,149,3.0,7.0,76,0.00,,,0.00,515.0,meteohub,2013-07-12 22:21:00,
2013-07-12 12:26:00,70.7,62.8,30.05,SW,233,3.0,7.0,76,0.00,,,0.00,515.0,meteohub,2013-07-12 22:26:00,
2013-07-12 12:31:00,71.6,64.0,30.05,SSE,155,3.0,7.0,77,0.00,,,0.00,1206.0,meteohub,2013-07-12 22:31:00,
2013-07-12 12:36:00,72.0,63.7,30.05,SW,229,2.0,9.0,75,0.00,,,0.00,510.0,meteohub,2013-07-12 22:36:00,
2013-07-12 12:41:00,72.1,63.3,30.05,West,262,1.0,9.0,74,0.00,,,0.00,478.0,meteohub,2013-07-12 22:41:00,
2013-07-12 12:46:00,71.8,63.0,30.04,SE,129,5.0,9.0,74,0.00,,,0.00,387.0,meteohub,2013-07-12 22:46:00,
2013-07-12 12:51:00,71.2,62.6,30.04,NE,55,0.0,8.0,74,0.00,,,0.00,1060.0,meteohub,2013-07-12 22:51:00,
2013-07-12 12:56:00,71.8,64.6,30.04,WSW,241,1.0,9.0,78,0.00,,,0.00,1055.0,meteohub,2013-07-12 22:56:00,
2013-07-12 13:01:00,72.0,64.8,30.04,WNW,285,1.0,9.0,78,0.00,,,0.00,1090.0,meteohub,2013-07-12 23:01:00,
2013-07-12 13:06:00,72.3,63.5,30.04,SE,139,3.0,7.0,74,0.00,,,0.00,1162.0,meteohub,2013-07-12 23:06:00,
2013-07-12 13:11:00,72.7,63.5,30.04,SSW,194,2.0,9.0,73,0.00,,,0.00,404.0,meteohub,2013-07-12 23:11:00,
2013-07-12 13:17:00,72.7,63.9,30.04,WSW,238,4.0,9.0,74,0.00,,,0.00,1375.0,meteohub,2013-07-12 23:17:00,
2013-07-12 13:22:00,72.1,64.2,30.04,SSW,211,1.0,9.0,76,0.00,,,0.00,392.0,meteohub,2013-07-12 23:22:00,
2013-07-12 13:27:00,71.6,64.4,30.04,South,184,3.0,7.0,78,0.00,,,0.00,429.0,meteohub,2013-07-12 23:27:00,
2013-07-12 13:32:00,71.2,64.0,30.04,WSW,248,4.0,7.0,78,0.00,,,0.00,1294.0,meteohub,2013-07-12 23:32:00,
2013-07-12 13:37:00,71.6,64.4,30.04,WSW,237,3.0,7.0,78,0.00,,,0.00,1299.0,meteohub,2013-07-12 23:37:00,
2013-07-12 13:42:00,72.1,64.9,30.04,WNW,286,1.0,9.0,78,0.00,,,0.00,1262.0,meteohub,2013-07-12 23:42:00,
2013-07-12 13:47:00,72.5,64.9,30.04,West,281,2.0,9.0,77,0.00,,,0.00,777.0,meteohub,2013-07-12 23:47:00,
2013-07-12 13:52:00,72.7,65.5,30.04,SSW,209,1.0,8.0,78,0.00,,,0.00,439.0,meteohub,2013-07-12 23:52:00,
2013-07-12 13:57:00,72.1,64.9,30.04,SW,234,1.0,8.0,78,0.00,,,0.00,355.0,meteohub,2013-07-12 23:57:00,
2013-07-12 14:02:00,71.6,64.0,30.03,WNW,288,1.0,7.0,77,0.00,,,0.00,441.0,meteohub,2013-07-13 00:02:00,
2013-07-12 14:08:00,71.6,64.4,30.03,NW,321,1.0,8.0,78,0.00,,,0.00,512.0,meteohub,2013-07-13 00:08:00,
2013-07-12 14:13:00,72.0,64.8,30.03,SW,234,1.0,8.0,78,0.00,,,0.00,703.0,meteohub,2013-07-13 00:13:00,
2013-07-12 14:18:00,72.3,64.8,30.03,WSW,242,2.0,8.0,77,0.00,,,0.00,396.0,meteohub,2013-07-13 00:18:00,
2013-07-12 14:24:00,72.3,64.8,30.03,SSE,157,0.0,8.0,77,0.00,,,0.00,965.0,meteohub,2013-07-13 00:24:00,
2013-07-12 14:29:00,72.1,64.6,30.04,SW,232,2.0,8.0,77,0.00,,,0.00,218.0,meteohub,2013-07-13 00:29:00,
2013-07-12 14:34:00,70.9,64.0,30.03,WSW,240,0.0,7.0,79,0.00,,,0.00,193.0,meteohub,2013-07-13 00:34:00,
2013-07-12 14:39:00,70.2,63.7,30.03,SW,232,1.0,7.0,80,0.00,,,0.00,288.0,meteohub,2013-07-13 00:39:00,
2013-07-12 14:44:00,69.8,64.0,30.03,West,268,2.0,7.0,82,0.00,,,0.00,422.0,meteohub,2013-07-13 00:44:00,
2013-07-12 14:49:00,70.5,64.0,30.03,WNW,296,2.0,6.0,80,0.00,,,0.00,432.0,meteohub,2013-07-13 00:49:00,
2013-07-12 14:54:00,70.9,64.0,30.03,SW,234,4.0,6.0,79,0.00,,,0.00,374.0,meteohub,2013-07-13 00:54:00,
2013-07-12 14:59:00,70.7,64.2,30.03,SW,226,3.0,7.0,80,0.00,,,0.00,536.0,meteohub,2013-07-13 00:59:00,
2013-07-12 15:04:00,70.9,64.8,30.03,South,181,3.0,7.0,81,0.00,,,0.00,202.0,meteohub,2013-07-13 01:04:00,
2013-07-12 15:09:00,70.3,64.2,30.03,South,181,0.0,7.0,81,0.00,,,0.00,141.0,meteohub,2013-07-13 01:09:00,
2013-07-12 15:15:00,69.8,64.4,30.02,SSW,205,0.0,7.0,83,0.00,,,0.00,160.0,meteohub,2013-07-13 01:15:00,
2013-07-12 15:20:00,69.6,64.6,30.02,SW,233,0.0,7.0,84,0.00,,,0.00,186.0,meteohub,2013-07-13 01:20:00,
2013-07-12 15:25:00,69.6,64.9,30.02,SW,225,0.0,5.0,85,0.00,,,0.00,185.0,meteohub,2013-07-13 01:25:00,
2013-07-12 15:30:00,69.3,64.9,30.02,SSW,211,1.0,5.0,86,0.00,,,0.00,172.0,meteohub,2013-07-13 01:30:00,
2013-07-12 15:35:00,69.1,64.8,30.02,WSW,255,1.0,7.0,86,0.00,,,0.00,213.0,meteohub,2013-07-13 01:35:00,
2013-07-12 15:41:00,68.9,64.6,30.02,WSW,256,1.0,7.0,86,0.00,,,0.00,236.0,meteohub,2013-07-13 01:41:00,
2013-07-12 15:46:00,68.7,64.0,30.02,SW,236,2.0,6.0,85,0.00,,,0.00,258.0,meteohub,2013-07-13 01:46:00,
2013-07-12 15:51:00,68.7,64.4,30.02,SW,219,2.0,6.0,86,0.00,,,0.00,276.0,meteohub,2013-07-13 01:51:00,
2013-07-12 15:56:00,69.1,64.4,30.02,WSW,249,2.0,6.0,85,0.00,,,0.00,193.0,meteohub,2013-07-13 01:56:00,
2013-07-12 16:02:00,68.7,64.4,30.02,South,183,0.0,6.0,86,0.00,,,0.00,216.0,meteohub,2013-07-13 02:02:00,
2013-07-12 16:07:00,68.5,64.2,30.02,SW,219,1.0,6.0,86,0.00,,,0.00,278.0,meteohub,2013-07-13 02:07:00,
2013-07-12 16:12:00,68.4,64.0,30.02,SW,225,1.0,5.0,86,0.00,,,0.00,418.0,meteohub,2013-07-13 02:12:00,
2013-07-12 16:17:00,68.5,64.6,30.02,SW,235,3.0,7.0,87,0.00,,,0.00,352.0,meteohub,2013-07-13 02:17:00,
2013-07-12 16:23:00,68.5,64.6,30.02,WSW,248,1.0,8.0,87,0.00,,,0.00,339.0,meteohub,2013-07-13 02:23:00,
2013-07-12 16:28:00,69.1,65.3,30.02,SE,127,0.0,8.0,88,0.00,,,0.00,682.0,meteohub,2013-07-13 02:28:00,
2013-07-12 16:34:00,68.9,64.6,30.02,SW,217,0.0,8.0,86,0.00,,,0.00,165.0,meteohub,2013-07-13 02:34:00,
2013-07-12 16:39:00,68.7,64.8,30.02,WSW,242,4.0,7.0,87,0.00,,,0.00,144.0,meteohub,2013-07-13 02:39:00,
2013-07-12 16:44:00,68.5,64.6,30.02,WSW,242,0.0,7.0,87,0.00,,,0.00,148.0,meteohub,2013-07-13 02:44:00,
2013-07-12 16:50:00,68.2,64.2,30.02,WSW,242,2.0,5.0,87,0.00,,,0.00,100.0,meteohub,2013-07-13 02:50:00,
2013-07-12 16:55:00,67.8,64.2,30.03,WSW,238,2.0,5.0,88,0.00,,,0.00,69.0,meteohub,2013-07-13 02:55:00,
2013-07-12 17:00:00,67.5,64.0,30.03,North,0,1.0,5.0,89,0.00,,,0.00,97.0,meteohub,2013-07-13 03:00:00,
2013-07-12 17:05:00,66.9,64.2,30.03,West,261,0.0,6.0,91,0.00,,,0.00,209.0,meteohub,2013-07-13 03:05:00,
2013-07-12 17:10:00,66.7,63.7,30.03,SSW,199,4.0,6.0,90,0.00,,,0.00,163.0,meteohub,2013-07-13 03:10:00,
2013-07-12 17:15:00,66.7,63.7,30.03,SW,231,0.0,6.0,90,0.00,,,0.00,162.0,meteohub,2013-07-13 03:15:00,
2013-07-12 17:20:00,66.7,64.0,30.03,SSW,193,0.0,6.0,91,0.00,,,0.00,127.0,meteohub,2013-07-13 03:20:00,
2013-07-12 17:26:00,66.7,63.7,30.03,WSW,248,1.0,4.0,90,0.00,,,0.00,105.0,meteohub,2013-07-13 03:26:00,
2013-07-12 17:31:00,66.7,64.0,30.03,WSW,252,1.0,4.0,91,0.00,,,0.00,67.0,meteohub,2013-07-13 03:31:00,
2013-07-12 17:36:00,66.4,64.0,30.03,SW,219,0.0,4.0,92,0.00,,,0.00,128.0,meteohub,2013-07-13 03:36:00,
2013-07-12 17:42:00,66.0,63.9,30.03,SW,217,1.0,4.0,93,0.00,,,0.00,49.0,meteohub,2013-07-13 03:42:00,
2013-07-12 17:47:00,65.8,63.7,30.03,North,0,0.0,5.0,93,0.00,,,0.00,77.0,meteohub,2013-07-13 03:47:00,
2013-07-12 17:53:00,65.7,63.5,30.04,SW,217,0.0,5.0,93,0.00,,,0.00,62.0,meteohub,2013-07-13 03:53:00,
2013-07-12 17:58:00,65.5,63.7,30.04,West,264,0.0,5.0,94,0.00,,,0.00,58.0,meteohub,2013-07-13 03:58:00,
2013-07-12 18:01:00,65.5,63.7,30.04,SW,234,1.0,5.0,94,0.00,,,0.00,79.0,meteohub,2013-07-13 04:01:00,
2013-07-12 18:02:00,65.3,63.5,30.04,WSW,241,4.0,5.0,94,0.00,,,0.00,77.0,meteohub,2013-07-13 04:02:00,
2013-07-12 18:07:00,65.1,63.3,30.04,WSW,237,0.0,4.0,94,0.00,,,0.00,97.0,meteohub,2013-07-13 04:07:00,
2013-07-12 18:12:00,64.9,63.1,30.04,SW,231,0.0,4.0,94,0.00,,,0.00,19.0,meteohub,2013-07-13 04:12:00,
2013-07-12 18:17:00,64.9,63.5,30.04,WSW,246,0.0,4.0,95,0.00,,,0.00,14.0,meteohub,2013-07-13 04:17:00,
2013-07-12 18:22:00,64.8,63.3,30.04,WSW,254,2.0,4.0,95,0.00,,,0.00,11.0,meteohub,2013-07-13 04:22:00,
2013-07-12 18:27:00,64.6,63.1,30.04,WSW,242,1.0,4.0,95,0.00,,,0.00,12.0,meteohub,2013-07-13 04:27:00,
2013-07-12 18:32:00,64.6,63.5,30.04,WSW,242,0.0,4.0,96,0.00,,,0.00,21.0,meteohub,2013-07-13 04:32:00,
2013-07-12 18:37:00,64.4,63.3,30.05,WSW,257,0.0,4.0,96,0.00,,,0.00,21.0,meteohub,2013-07-13 04:37:00,
2013-07-12 18:42:00,64.2,63.1,30.05,West,259,1.0,4.0,96,0.00,,,0.00,14.0,meteohub,2013-07-13 04:42:00,
2013-07-12 18:47:00,64.0,63.0,30.05,WSW,244,0.0,2.0,96,0.00,,,0.00,7.0,meteohub,2013-07-13 04:47:00,
2013-07-12 18:52:00,64.0,63.0,30.05,WSW,244,1.0,2.0,96,0.00,,,0.00,5.0,meteohub,2013-07-13 04:52:00,
2013-07-12 18:55:00,64.0,63.0,30.05,WSW,242,0.0,2.0,96,0.00,,,0.00,0.0,meteohub,2013-07-13 04:55:00,
2013-07-12 19:02:00,63.9,62.8,30.05,WSW,255,0.0,4.0,96,0.00,,,0.00,0.0,meteohub,2013-07-13 05:02:00,
2013-07-12 19:10:00,63.7,62.8,30.05,WSW,243,0.0,4.0,97,0.00,,,0.00,0.0,meteohub,2013-07-13 05:10:00,
2013-07-12 19:15:00,63.5,62.6,30.05,North,0,0.0,4.0,97,0.00,,,0.00,0.0,meteohub,2013-07-13 05:15:00,
2013-07-12 19:20:00,63.3,62.4,30.05,SW,223,0.0,2.0,97,0.00,,,0.00,0.0,meteohub,2013-07-13 05:20:00,
2013-07-12 19:25:00,63.3,62.4,30.05,SW,224,0.0,2.0,97,0.00,,,0.00,0.0,meteohub,2013-07-13 05:25:00,
2013-07-12 19:30:00,63.1,62.2,30.06,SW,224,0.0,2.0,97,0.00,,,0.00,0.0,meteohub,2013-07-13 05:30:00,
2013-07-12 19:35:00,63.1,62.2,30.06,SW,222,0.0,1.0,97,0.00,,,0.00,0.0,meteohub,2013-07-13 05:35:00,
2013-07-12 19:40:00,63.1,62.2,30.05,SW,225,0.0,1.0,97,0.00,,,0.00,0.0,meteohub,2013-07-13 05:40:00,
2013-07-12 19:45:00,63.1,62.2,30.05,SW,224,0.0,1.0,97,0.00,,,0.00,0.0,meteohub,2013-07-13 05:45:00,
2013-07-12 19:50:00,63.1,62.2,30.05,SW,224,0.0,0.0,97,0.00,,,0.00,0.0,meteohub,2013-07-13 05:50:00,
2013-07-12 19:55:00,63.1,62.2,30.06,SW,224,0.0,0.0,97,0.00,,,0.00,0.0,meteohub,2013-07-13 05:55:00,
2013-07-12 20:00:00,63.1,62.2,30.06,SW,224,0.0,0.0,97,0.00,,,0.00,0.0,meteohub,2013-07-13 06:00:00,
2013-07-12 20:05:00,63.0,62.1,30.06,SW,224,0.0,0.0,97,0.00,,,0.00,0.0,meteohub,2013-07-13 06:05:00,
2013-07-12 20:10:00,63.0,62.1,30.06,SW,223,0.0,0.0,97,0.00,,,0.00,0.0,meteohub,2013-07-13 06:10:00,
2013-07-12 20:15:00,63.0,62.1,30.06,SW,223,0.0,0.0,97,0.00,,,0.00,0.0,meteohub,2013-07-13 06:15:00,
2013-07-12 20:20:00,63.0,62.1,30.06,SW,222,0.0,0.0,97,0.00,,,0.00,0.0,meteohub,2013-07-13 06:20:00,
2013-07-12 20:25:00,63.0,62.1,30.06,SW,223,0.0,0.0,97,0.00,,,0.00,0.0,meteohub,2013-07-13 06:25:00,
2013-07-12 20:30:00,63.0,62.1,30.06,SW,227,0.0,1.0,97,0.00,,,0.00,0.0,meteohub,2013-07-13 06:30:00,
2013-07-12 20:35:00,63.0,62.1,30.06,SW,224,0.0,1.0,97,0.00,,,0.00,0.0,meteohub,2013-07-13 06:35:00,
2013-07-12 20:40:00,63.0,62.1,30.06,SW,224,0.0,1.0,97,0.00,,,0.00,0.0,meteohub,2013-07-13 06:40:00,
2013-07-12 20:45:00,63.0,62.1,30.07,SW,224,0.0,0.0,97,0.00,,,0.00,0.0,meteohub,2013-07-13 06:45:00,
2013-07-12 20:51:00,63.0,62.1,30.06,SW,224,0.0,0.0,97,0.00,,,0.00,0.0,meteohub,2013-07-13 06:51:00,
2013-07-12 20:56:00,62.8,61.9,30.06,SW,223,0.0,0.0,97,0.00,,,0.00,0.0,meteohub,2013-07-13 06:56:00,
2013-07-12 21:01:00,62.8,61.7,30.06,SW,222,0.0,0.0,96,0.00,,,0.00,0.0,meteohub,2013-07-13 07:01:00,
2013-07-12 21:06:00,62.6,61.7,30.06,SW,224,0.0,0.0,97,0.00,,,0.00,0.0,meteohub,2013-07-13 07:06:00,
2013-07-12 21:11:00,62.8,61.9,30.07,SW,224,0.0,0.0,97,0.00,,,0.00,0.0,meteohub,2013-07-13 07:11:00,
2013-07-12 21:16:00,62.6,61.7,30.06,SW,224,0.0,0.0,97,0.00,,,0.00,0.0,meteohub,2013-07-13 07:16:00,
2013-07-12 21:21:00,62.6,61.5,30.07,SW,225,0.0,0.0,96,0.00,,,0.00,0.0,meteohub,2013-07-13 07:21:00,
2013-07-12 21:26:00,62.4,61.5,30.07,North,0,0.0,0.0,97,0.00,,,0.00,0.0,meteohub,2013-07-13 07:26:00,
2013-07-12 21:31:00,62.4,61.3,30.07,SW,224,0.0,1.0,96,0.00,,,0.00,0.0,meteohub,2013-07-13 07:31:00,
2013-07-12 21:36:00,62.4,61.3,30.07,SW,224,0.0,1.0,96,0.00,,,0.00,0.0,meteohub,2013-07-13 07:36:00,
2013-07-12 21:41:00,62.2,60.8,30.07,SW,225,0.0,1.0,95,0.00,,,0.00,0.0,meteohub,2013-07-13 07:41:00,
2013-07-12 21:46:00,62.1,60.6,30.08,SW,224,0.0,0.0,95,0.00,,,0.00,0.0,meteohub,2013-07-13 07:46:00,
2013-07-12 21:51:00,61.9,60.8,30.08,SW,227,0.0,0.0,96,0.00,,,0.00,0.0,meteohub,2013-07-13 07:51:00,
2013-07-12 21:56:00,61.7,60.3,30.08,SW,224,0.0,0.0,95,0.00,,,0.00,0.0,meteohub,2013-07-13 07:56:00,
2013-07-12 22:01:00,61.3,59.9,30.08,North,0,0.0,0.0,95,0.00,,,0.00,0.0,meteohub,2013-07-13 08:01:00,
2013-07-12 22:06:00,61.2,60.1,30.08,SW,223,0.0,0.0,96,0.00,,,0.00,0.0,meteohub,2013-07-13 08:06:00,
2013-07-12 22:11:00,61.2,60.1,30.08,South,178,0.0,0.0,96,0.00,,,0.00,0.0,meteohub,2013-07-13 08:11:00,
2013-07-12 22:16:00,61.2,60.3,30.08,South,178,0.0,1.0,97,0.00,,,0.00,0.0,meteohub,2013-07-13 08:16:00,
2013-07-12 22:21:00,61.2,60.1,30.08,South,178,0.0,1.0,96,0.00,,,0.00,0.0,meteohub,2013-07-13 08:21:00,
2013-07-12 22:26:00,61.2,60.1,30.08,South,175,0.0,1.0,96,0.00,,,0.00,0.0,meteohub,2013-07-13 08:26:00,
2013-07-12 22:31:00,60.8,59.4,30.08,ESE,112,1.0,1.0,95,0.00,,,0.00,0.0,meteohub,2013-07-13 08:31:00,
2013-07-12 22:36:00,60.4,58.5,30.08,East,89,0.0,4.0,93,0.00,,,0.00,0.0,meteohub,2013-07-13 08:36:00,
2013-07-12 22:41:00,60.1,58.1,30.08,ESE,102,1.0,4.0,93,0.00,,,0.00,0.0,meteohub,2013-07-13 08:41:00,
2013-07-12 22:46:00,59.7,57.7,30.08,East,79,1.0,4.0,93,0.00,,,0.00,0.0,meteohub,2013-07-13 08:46:00,
2013-07-12 22:51:00,59.5,57.2,30.08,East,88,0.0,3.0,92,0.00,,,0.00,0.0,meteohub,2013-07-13 08:51:00,
2013-07-12 22:56:00,59.2,56.8,30.08,ENE,76,2.0,5.0,92,0.00,,,0.00,0.0,meteohub,2013-07-13 08:56:00,
2013-07-12 23:01:00,58.8,56.5,30.08,ENE,76,3.0,5.0,92,0.00,,,0.00,0.0,meteohub,2013-07-13 09:01:00,
2013-07-12 23:06:00,58.6,56.3,30.08,ENE,77,1.0,4.0,92,0.00,,,0.00,0.0,meteohub,2013-07-13 09:06:00,
2013-07-12 23:11:00,58.5,56.1,30.08,ENE,74,3.0,3.0,92,0.00,,,0.00,0.0,meteohub,2013-07-13 09:11:00,
2013-07-12 23:16:00,58.3,55.9,30.08,ENE,78,1.0,3.0,92,0.00,,,0.00,0.0,meteohub,2013-07-13 09:16:00,
2013-07-12 23:21:00,57.9,55.6,30.08,ENE,76,1.0,4.0,92,0.00,,,0.00,0.0,meteohub,2013-07-13 09:21:00,
2013-07-12 23:26:00,57.7,55.4,30.08,ENE,76,3.0,4.0,92,0.00,,,0.00,0.0,meteohub,2013-07-13 09:26:00,
2013-07-12 23:31:00,57.6,55.2,30.08,ENE,78,1.0,5.0,92,0.00,,,0.00,0.0,meteohub,2013-07-13 09:31:00,
2013-07-12 23:36:00,57.4,54.9,30.08,East,88,2.0,5.0,91,0.00,,,0.00,0.0,meteohub,2013-07-13 09:36:00,
2013-07-12 23:41:00,57.6,55.0,30.08,ENE,59,3.0,5.0,91,0.00,,,0.00,0.0,meteohub,2013-07-13 09:41:00,
2013-07-12 23:46:00,57.6,54.7,30.07,East,101,1.0,5.0,90,0.00,,,0.00,0.0,meteohub,2013-07-13 09:46:00,
2013-07-12 23:51:00,57.7,55.2,30.07,ESE,103,2.0,5.0,91,0.00,,,0.00,0.0,meteohub,2013-07-13 09:51:00,
2013-07-12 23:56:00,58.1,55.4,30.07,ENE,74,3.0,5.0,91,0.00,,,0.00,0.0,meteohub,2013-07-13 09:56:00,